createdAt,value
2022-12-31T00:17:07.616Z,393
2022-12-31T00:37:07.727Z,387
2022-12-31T00:57:07.746Z,388
2022-12-31T01:17:07.249Z,387
2022-12-31T01:57:07.744Z,394
2022-12-31T02:17:07.767Z,403
2022-12-31T02:37:07.519Z,399
2022-12-31T02:57:07.735Z,417
2022-12-31T03:17:07.763Z,407
2022-12-31T03:37:07.746Z,413
2022-12-31T03:57:07.759Z,412
2022-12-31T04:17:07.762Z,415
2022-12-31T04:37:07.547Z,407
2022-12-31T04:57:07.731Z,408
2022-12-31T05:17:07.727Z,403
2022-12-31T05:37:07.761Z,402
2022-12-31T05:57:07.742Z,399
2022-12-31T06:17:07.233Z,407
2022-12-31T06:37:07.245Z,401
2022-12-31T06:57:07.727Z,406
2022-12-31T07:17:07.708Z,401
2022-12-31T07:37:07.732Z,389
2022-12-31T08:17:07.707Z,398
2022-12-31T08:37:07.533Z,392
2022-12-31T08:57:07.718Z,388
2022-12-31T09:17:07.737Z,390
2022-12-31T09:37:07.692Z,393
2022-12-31T09:57:07.777Z,387
2022-12-31T10:17:07.725Z,390
2022-12-31T10:37:07.683Z,386
2022-12-31T10:57:07.697Z,384
2022-12-31T11:17:07.473Z,386
2022-12-31T11:37:07.666Z,375
2022-12-31T11:57:07.471Z,377
2022-12-31T12:17:07.676Z,387
2022-12-31T12:37:07.679Z,379
2022-12-31T12:57:07.679Z,385
2022-12-31T13:17:07.695Z,376
2022-12-31T13:37:07.659Z,385
2022-12-31T13:57:07.639Z,386
2022-12-31T14:17:07.622Z,379
2022-12-31T14:37:07.642Z,378
2022-12-31T14:57:07.663Z,380
2022-12-31T15:17:07.665Z,375
2022-12-31T15:37:07.665Z,383
2022-12-31T15:57:09.479Z,381
2022-12-31T16:17:07.428Z,381
2022-12-31T16:37:07.630Z,379
2022-12-31T16:57:07.131Z,377
2022-12-31T17:17:07.670Z,381
2022-12-31T17:57:07.649Z,377
2022-12-31T18:17:07.417Z,374
2022-12-31T18:37:07.408Z,380
2022-12-31T18:57:07.119Z,379
2022-12-31T19:37:07.633Z,382
2022-12-31T19:57:07.100Z,384
2022-12-31T20:17:07.258Z,379
2022-12-31T20:37:07.656Z,379
2022-12-31T20:57:07.606Z,373
2022-12-31T21:17:07.618Z,379
2022-12-31T21:37:07.592Z,371
2022-12-31T21:57:07.579Z,373
2022-12-31T22:17:07.617Z,369
2022-12-31T22:37:27.377Z,375
2022-12-31T22:57:07.611Z,372
2022-12-31T23:17:30.682Z,370
2022-12-31T23:37:07.577Z,369
2022-12-31T23:57:07.371Z,368
